createdAt,value
2022-08-17T00:00:43.645Z,99.90
2022-08-17T00:03:10.519Z,99.90
2022-08-17T00:05:41.896Z,99.90
2022-08-17T00:08:10.317Z,99.90
2022-08-17T00:10:38.524Z,99.90
2022-08-17T00:13:08.541Z,99.90
2022-08-17T00:15:38.318Z,99.90
2022-08-17T00:19:01.060Z,99.90
2022-08-17T00:20:55.234Z,99.90
2022-08-17T00:23:23.690Z,99.90
2022-08-17T00:25:51.880Z,99.90
2022-08-17T00:28:20.950Z,99.90
2022-08-17T00:30:53.530Z,99.90
2022-08-17T00:33:25.916Z,99.90
2022-08-17T00:35:54.823Z,99.90
2022-08-17T00:38:23.269Z,99.90
2022-08-17T00:40:55.873Z,99.90
2022-08-17T00:43:31.916Z,99.90
2022-08-17T00:46:03.193Z,99.90
2022-08-17T00:48:32.118Z,99.90
2022-08-17T00:51:06.660Z,99.90
2022-08-17T00:53:39.645Z,99.90
2022-08-17T00:56:11.767Z,99.90
2022-08-17T00:58:39.984Z,99.90
2022-08-17T01:01:11.524Z,99.90
2022-08-17T01:03:41.492Z,99.90
2022-08-17T01:06:10.095Z,99.90
2022-08-17T01:08:40.448Z,99.90
2022-08-17T01:11:09.451Z,99.90
2022-08-17T01:13:41.208Z,99.90
2022-08-17T01:16:17.059Z,99.90
2022-08-17T01:18:46.815Z,99.90
2022-08-17T01:21:23.535Z,99.90
2022-08-17T01:23:52.895Z,99.90
2022-08-17T01:26:21.418Z,99.90
2022-08-17T01:28:53.888Z,99.90
2022-08-17T01:31:25.504Z,99.90
2022-08-17T01:33:53.660Z,99.90
2022-08-17T01:36:21.771Z,99.90
2022-08-17T01:38:49.769Z,99.90
2022-08-17T01:41:22.601Z,99.90
2022-08-17T01:43:54.781Z,99.90
2022-08-17T01:46:26.901Z,99.90
2022-08-17T01:48:56.043Z,99.90
2022-08-17T01:51:24.150Z,99.90
2022-08-17T01:53:55.117Z,99.90
2022-08-17T01:56:26.254Z,99.90
2022-08-17T01:58:54.596Z,99.90
2022-08-17T02:01:24.802Z,99.90
2022-08-17T02:03:59.625Z,99.90
2022-08-17T02:06:31.419Z,99.90
2022-08-17T02:09:12.215Z,99.90
2022-08-17T02:11:46.849Z,99.90
2022-08-17T02:14:15.177Z,99.90
2022-08-17T02:16:43.688Z,99.90
2022-08-17T02:19:13.669Z,99.90
2022-08-17T02:21:42.880Z,99.90
2022-08-17T02:24:16.641Z,99.90
2022-08-17T02:26:46.895Z,99.90
2022-08-17T02:29:15.762Z,99.90
2022-08-17T02:31:44.217Z,99.90
2022-08-17T02:34:12.566Z,99.90
2022-08-17T02:36:40.896Z,99.90
2022-08-17T02:39:11.766Z,99.90
2022-08-17T02:41:40.846Z,99.90
2022-08-17T02:44:10.084Z,99.90
2022-08-17T02:46:38.026Z,99.90
2022-08-17T02:49:06.301Z,99.90
2022-08-17T02:51:35.236Z,99.90
2022-08-17T02:54:39.814Z,99.90
2022-08-17T02:56:51.253Z,99.90
2022-08-17T02:59:20.552Z,99.90
2022-08-17T03:01:48.701Z,99.90
2022-08-17T03:04:17.032Z,99.90
2022-08-17T03:06:44.929Z,99.90
2022-08-17T03:09:13.218Z,99.90
2022-08-17T03:11:41.151Z,99.90
2022-08-17T03:14:09.229Z,99.90
2022-08-17T03:16:38.405Z,99.90
2022-08-17T03:19:07.276Z,99.90
2022-08-17T03:21:35.279Z,99.90
2022-08-17T03:24:06.906Z,99.90
2022-08-17T03:26:37.154Z,99.90
2022-08-17T03:29:05.028Z,99.90
2022-08-17T03:31:33.013Z,99.90
2022-08-17T03:34:06.387Z,99.90
2022-08-17T03:36:36.142Z,99.90
2022-08-17T03:39:04.443Z,99.90
2022-08-17T03:41:32.552Z,99.90
2022-08-17T03:44:00.488Z,99.90
2022-08-17T03:46:45.930Z,99.90
2022-08-17T03:49:32.662Z,99.90
2022-08-17T03:52:18.174Z,99.90
2022-08-17T03:55:03.718Z,99.90
2022-08-17T03:57:32.802Z,99.90
2022-08-17T04:00:00.729Z,99.90
2022-08-17T04:02:31.793Z,99.90
2022-08-17T04:05:02.042Z,99.90
2022-08-17T04:07:31.664Z,99.90
2022-08-17T04:09:59.747Z,99.90
2022-08-17T04:12:30.863Z,99.90
2022-08-17T04:14:59.345Z,99.90
2022-08-17T04:17:30.140Z,99.90
2022-08-17T04:19:58.156Z,99.90
2022-08-17T04:22:31.230Z,99.90
2022-08-17T04:25:05.161Z,99.90
2022-08-17T04:27:33.182Z,99.90
2022-08-17T04:30:01.514Z,99.90
2022-08-17T04:33:00.634Z,99.90
2022-08-17T04:35:21.155Z,99.90
2022-08-17T04:37:50.885Z,99.90
2022-08-17T04:40:37.360Z,99.90
2022-08-17T04:43:08.636Z,99.90
2022-08-17T04:45:40.536Z,99.90
2022-08-17T04:48:29.857Z,99.90
2022-08-17T04:51:10.267Z,99.90
2022-08-17T04:53:40.937Z,99.90
2022-08-17T04:56:11.573Z,99.90
2022-08-17T04:58:45.635Z,99.90
2022-08-17T05:01:13.811Z,99.90
2022-08-17T05:03:42.662Z,99.90
2022-08-17T05:06:10.905Z,99.90
2022-08-17T05:08:40.701Z,99.90
2022-08-17T05:11:08.848Z,99.90
2022-08-17T05:13:36.757Z,99.90
2022-08-17T05:16:05.611Z,99.90
2022-08-17T05:18:34.084Z,76.80
2022-08-17T05:21:03.279Z,45.70
2022-08-17T05:23:35.588Z,88.30
2022-08-17T05:26:25.777Z,8.40
2022-08-17T05:28:54.944Z,1.00
2022-08-17T05:31:25.712Z,1.00
2022-08-17T05:33:53.916Z,1.00
2022-08-17T05:36:42.546Z,1.00
2022-08-17T05:39:10.780Z,99.90
2022-08-17T05:41:47.567Z,99.90
2022-08-17T05:44:15.620Z,1.00
2022-08-17T05:46:48.536Z,99.90
2022-08-17T05:49:17.174Z,99.90
2022-08-17T05:52:19.912Z,1.00
2022-08-17T05:55:01.909Z,1.00
2022-08-17T05:57:56.094Z,1.00
2022-08-17T06:00:30.267Z,5.10
2022-08-17T06:03:16.372Z,99.90
2022-08-17T06:05:55.818Z,99.90
2022-08-17T06:08:33.177Z,1.30
2022-08-17T06:11:08.609Z,35.30
2022-08-17T06:14:13.091Z,1.00
2022-08-17T06:16:45.851Z,99.90
2022-08-17T06:19:18.111Z,1.00
2022-08-17T06:21:49.709Z,99.90
2022-08-17T06:24:35.727Z,1.00
2022-08-17T06:27:10.547Z,99.90
2022-08-17T06:29:54.819Z,1.00
2022-08-17T06:32:23.250Z,1.00
2022-08-17T06:34:52.443Z,99.90
2022-08-17T06:37:33.710Z,99.90
2022-08-17T06:40:16.592Z,99.90
2022-08-17T06:43:05.294Z,1.00
2022-08-17T06:45:39.924Z,99.90
2022-08-17T06:48:11.874Z,99.90
2022-08-17T06:50:43.664Z,1.00
2022-08-17T06:53:18.866Z,1.00
2022-08-17T06:55:51.652Z,99.90
2022-08-17T06:58:23.728Z,1.00
2022-08-17T07:01:05.461Z,99.90
2022-08-17T07:03:38.022Z,99.90
2022-08-17T07:06:16.894Z,1.00
2022-08-17T07:08:56.524Z,1.00
2022-08-17T07:11:40.345Z,1.00
2022-08-17T07:14:27.053Z,1.00
2022-08-17T07:16:59.473Z,1.00
2022-08-17T07:19:32.896Z,1.00
2022-08-17T07:22:10.751Z,1.00
2022-08-17T07:24:48.228Z,1.00
2022-08-17T07:27:20.880Z,1.00
2022-08-17T07:29:53.601Z,1.00
2022-08-17T07:32:29.366Z,1.00
2022-08-17T07:35:17.961Z,1.00
2022-08-17T07:37:53.159Z,99.90
2022-08-17T07:40:32.312Z,99.90
2022-08-17T07:43:18.790Z,99.90
2022-08-17T07:46:30.457Z,99.90
2022-08-17T07:49:26.000Z,99.90
2022-08-17T07:52:48.078Z,99.90
2022-08-17T07:54:51.111Z,93.50
2022-08-17T07:57:35.447Z,38.70
2022-08-17T08:00:32.175Z,99.90
2022-08-17T08:03:24.643Z,99.90
2022-08-17T08:06:00.336Z,99.90
2022-08-17T08:08:33.847Z,1.00
2022-08-17T08:11:08.539Z,99.90
2022-08-17T08:13:42.774Z,1.00
2022-08-17T08:16:24.605Z,99.90
2022-08-17T08:18:58.415Z,1.00
2022-08-17T08:21:36.625Z,1.00
2022-08-17T08:25:00.536Z,1.00
2022-08-17T08:27:38.664Z,1.00
2022-08-17T08:30:11.646Z,1.00
2022-08-17T08:32:53.474Z,1.00
2022-08-17T08:35:31.034Z,1.00
2022-08-17T08:38:11.112Z,1.00
2022-08-17T08:41:01.063Z,1.00
2022-08-17T08:43:38.328Z,99.90
2022-08-17T08:46:19.921Z,99.90
2022-08-17T08:50:01.803Z,1.00
2022-08-17T08:52:34.371Z,99.90
2022-08-17T08:55:12.807Z,1.00
2022-08-17T08:57:46.688Z,99.90
2022-08-17T09:00:18.383Z,1.00
2022-08-17T09:03:09.242Z,99.90
2022-08-17T09:05:53.497Z,99.90
2022-08-17T09:08:32.339Z,1.00
2022-08-17T09:11:06.835Z,1.00
2022-08-17T09:13:45.266Z,1.00
2022-08-17T09:16:17.352Z,24.10
2022-08-17T09:19:01.044Z,1.00
2022-08-17T09:21:48.729Z,11.70
2022-08-17T09:24:26.227Z,99.90
2022-08-17T09:27:05.966Z,99.90
2022-08-17T09:29:37.942Z,1.00
2022-08-17T09:32:17.820Z,1.00
2022-08-17T09:34:52.678Z,1.00
2022-08-17T09:37:28.281Z,1.00
2022-08-17T09:40:10.558Z,1.00
2022-08-17T09:42:48.510Z,1.00
2022-08-17T09:45:31.457Z,99.90
2022-08-17T09:48:05.573Z,1.00
2022-08-17T09:50:55.337Z,1.00
2022-08-17T09:53:31.769Z,1.00
2022-08-17T09:56:12.857Z,65.90
2022-08-17T09:58:51.370Z,1.00
2022-08-17T10:01:31.486Z,1.00
2022-08-17T10:04:14.295Z,1.00
2022-08-17T10:06:50.318Z,1.00
2022-08-17T10:09:26.055Z,43.70
2022-08-17T10:12:20.217Z,99.90
2022-08-17T10:15:08.189Z,99.90
2022-08-17T10:17:55.514Z,99.90
2022-08-17T10:20:30.165Z,99.90
2022-08-17T10:23:18.616Z,99.90
2022-08-17T10:26:14.984Z,99.90
2022-08-17T10:28:49.838Z,99.90
2022-08-17T10:31:34.761Z,99.90
2022-08-17T10:34:19.124Z,99.90
2022-08-17T10:36:54.648Z,99.90
2022-08-17T10:39:30.521Z,99.90
2022-08-17T10:42:04.176Z,90.70
2022-08-17T10:44:45.396Z,83.30
2022-08-17T10:47:17.407Z,63.10
2022-08-17T10:49:53.449Z,75.00
2022-08-17T10:52:56.051Z,73.10
2022-08-17T10:55:25.727Z,73.20
2022-08-17T10:58:14.401Z,66.90
2022-08-17T11:01:12.571Z,52.20
2022-08-17T11:03:55.010Z,48.10
2022-08-17T11:06:31.307Z,46.50
2022-08-17T11:09:34.895Z,39.40
2022-08-17T11:12:16.137Z,37.70
2022-08-17T11:14:57.905Z,30.40
2022-08-17T11:17:42.821Z,29.00
2022-08-17T11:20:38.790Z,24.80
2022-08-17T11:23:39.877Z,26.00
2022-08-17T11:26:26.302Z,26.10
2022-08-17T11:29:00.142Z,28.10
2022-08-17T11:31:38.417Z,26.70
2022-08-17T11:34:15.063Z,24.60
2022-08-17T11:37:10.659Z,22.10
2022-08-17T11:40:07.575Z,24.00
2022-08-17T11:42:50.473Z,17.40
2022-08-17T11:45:45.530Z,19.20
2022-08-17T11:48:38.921Z,16.80
2022-08-17T11:51:32.488Z,17.20
2022-08-17T11:54:31.802Z,17.00
2022-08-17T11:56:54.574Z,17.90
2022-08-17T11:59:58.617Z,19.40
2022-08-17T12:02:48.089Z,20.70
2022-08-17T12:05:35.034Z,22.50
2022-08-17T12:08:17.707Z,25.20
2022-08-17T12:11:01.432Z,25.90
2022-08-17T12:13:38.428Z,26.50
2022-08-17T12:16:09.955Z,28.00
2022-08-17T12:18:41.817Z,25.90
2022-08-17T12:21:40.240Z,23.60
2022-08-17T12:24:18.809Z,26.60
2022-08-17T12:26:58.357Z,25.30
2022-08-17T12:29:35.825Z,25.20
2022-08-17T12:32:08.348Z,27.90
2022-08-17T12:34:40.598Z,26.30
2022-08-17T12:37:15.166Z,25.90
2022-08-17T12:39:52.425Z,26.50
2022-08-17T12:42:30.305Z,27.30
2022-08-17T12:44:58.435Z,24.50
2022-08-17T12:47:29.478Z,25.70
2022-08-17T12:50:08.273Z,24.30
2022-08-17T12:53:01.097Z,24.20
2022-08-17T12:55:33.109Z,20.80
2022-08-17T12:58:03.677Z,19.10
2022-08-17T13:00:34.654Z,17.70
2022-08-17T13:03:06.006Z,16.20
2022-08-17T13:05:37.042Z,17.00
2022-08-17T13:08:15.247Z,16.80
2022-08-17T13:10:43.814Z,9.50
2022-08-17T13:13:23.345Z,10.20
2022-08-17T13:15:57.186Z,5.40
2022-08-17T13:18:43.340Z,3.50
2022-08-17T13:21:23.653Z,3.10
2022-08-17T13:23:57.263Z,1.00
2022-08-17T13:26:30.299Z,1.00
2022-08-17T13:29:00.603Z,1.00
2022-08-17T13:31:49.229Z,1.00
2022-08-17T13:34:55.076Z,1.00
2022-08-17T13:37:30.859Z,1.00
2022-08-17T13:40:01.177Z,1.00
2022-08-17T13:42:51.741Z,1.00
2022-08-17T13:45:54.048Z,1.00
2022-08-17T13:48:28.757Z,1.00
2022-08-17T13:51:23.647Z,1.00
2022-08-17T13:53:56.581Z,1.00
2022-08-17T13:56:51.239Z,1.00
2022-08-17T13:59:53.124Z,1.00
2022-08-17T14:02:21.483Z,1.00
2022-08-17T14:04:50.284Z,1.00
2022-08-17T14:07:34.756Z,1.00
2022-08-17T14:10:07.544Z,1.00
2022-08-17T14:12:36.709Z,1.00
2022-08-17T14:15:05.523Z,1.00
2022-08-17T14:17:38.879Z,1.00
2022-08-17T14:20:10.804Z,1.00
2022-08-17T14:22:44.668Z,1.00
2022-08-17T14:25:14.824Z,1.00
2022-08-17T14:27:52.765Z,1.00
2022-08-17T14:30:24.001Z,1.00
2022-08-17T14:32:54.689Z,1.00
2022-08-17T14:35:24.848Z,1.00
2022-08-17T14:37:53.661Z,1.00
2022-08-17T14:40:24.538Z,1.00
2022-08-17T14:42:54.371Z,1.00
2022-08-17T14:45:31.926Z,1.00
2022-08-17T14:48:05.506Z,1.00
2022-08-17T14:50:35.350Z,1.00
2022-08-17T14:53:04.379Z,1.00
2022-08-17T14:55:32.723Z,1.00
2022-08-17T14:58:00.668Z,1.00
2022-08-17T15:00:28.670Z,1.00
2022-08-17T15:03:00.006Z,1.00
2022-08-17T15:05:31.806Z,1.00
2022-08-17T15:07:59.747Z,1.00
2022-08-17T15:10:29.495Z,1.00
2022-08-17T15:12:58.224Z,1.00
2022-08-17T15:15:27.200Z,1.00
2022-08-17T15:17:55.232Z,1.00
2022-08-17T15:20:27.126Z,1.00
2022-08-17T15:22:58.881Z,1.00
2022-08-17T15:25:30.051Z,1.00
2022-08-17T15:27:58.340Z,1.00
2022-08-17T15:30:27.855Z,99.90
2022-08-17T15:32:57.900Z,99.90
2022-08-17T15:35:29.165Z,1.00
2022-08-17T15:38:04.948Z,99.90
2022-08-17T15:40:40.209Z,99.90
2022-08-17T15:43:10.372Z,99.90
2022-08-17T15:45:38.636Z,99.90
2022-08-17T15:48:06.973Z,99.90
2022-08-17T15:50:35.037Z,99.90
2022-08-17T15:53:04.847Z,99.90
2022-08-17T15:55:34.005Z,99.90
2022-08-17T15:58:02.070Z,99.90
2022-08-17T16:00:30.687Z,99.90
2022-08-17T16:03:58.452Z,99.90
2022-08-17T16:06:07.432Z,99.90
2022-08-17T16:08:40.843Z,99.90
2022-08-17T16:11:08.963Z,99.90
2022-08-17T16:13:36.910Z,99.90
2022-08-17T16:16:05.338Z,99.90
2022-08-17T16:18:33.319Z,99.90
2022-08-17T16:21:23.465Z,99.90
2022-08-17T16:23:56.130Z,99.90
2022-08-17T16:26:24.858Z,99.90
2022-08-17T16:28:53.474Z,99.90
2022-08-17T16:31:21.716Z,99.90
2022-08-17T16:34:15.764Z,99.90
2022-08-17T16:36:39.100Z,99.90
2022-08-17T16:39:09.015Z,99.90
2022-08-17T16:41:45.465Z,99.90
2022-08-17T16:44:15.725Z,1.00
2022-08-17T16:46:45.674Z,99.90
2022-08-17T16:49:35.937Z,99.90
2022-08-17T16:52:06.858Z,1.00
2022-08-17T16:54:39.420Z,1.00
2022-08-17T16:57:07.790Z,1.00
2022-08-17T16:59:42.523Z,1.00
2022-08-17T17:02:16.237Z,1.00
2022-08-17T17:04:50.614Z,1.00
2022-08-17T17:07:34.854Z,1.00
2022-08-17T17:10:09.628Z,1.00
2022-08-17T17:13:01.546Z,1.00
2022-08-17T17:15:42.060Z,1.00
2022-08-17T17:18:15.694Z,1.00
2022-08-17T17:20:50.600Z,1.00
2022-08-17T17:23:33.232Z,1.00
2022-08-17T17:26:12.580Z,1.00
2022-08-17T17:28:49.122Z,1.00
2022-08-17T17:31:19.979Z,1.00
2022-08-17T17:33:52.817Z,1.00
2022-08-17T17:36:31.285Z,1.00
2022-08-17T17:39:05.172Z,1.00
2022-08-17T17:41:43.389Z,1.00
2022-08-17T17:44:17.868Z,1.00
2022-08-17T17:46:54.200Z,1.00
2022-08-17T17:49:23.670Z,1.00
2022-08-17T17:52:08.102Z,1.00
2022-08-17T17:54:54.128Z,1.00
2022-08-17T17:57:30.721Z,1.00
2022-08-17T18:00:04.699Z,1.00
2022-08-17T18:02:52.193Z,1.00
2022-08-17T18:06:05.478Z,1.00
2022-08-17T18:08:51.053Z,1.00
2022-08-17T18:11:35.352Z,1.00
2022-08-17T18:14:21.962Z,1.00
2022-08-17T18:16:56.228Z,1.00
2022-08-17T18:19:27.230Z,1.00
2022-08-17T18:22:04.129Z,1.00
2022-08-17T18:24:38.064Z,1.00
2022-08-17T18:27:19.241Z,1.00
2022-08-17T18:29:49.336Z,1.00
2022-08-17T18:32:34.518Z,1.00
2022-08-17T18:35:19.231Z,1.00
2022-08-17T18:37:49.552Z,1.00
2022-08-17T18:40:37.428Z,1.00
2022-08-17T18:43:15.577Z,1.00
2022-08-17T18:45:48.110Z,1.00
2022-08-17T18:48:33.027Z,1.00
2022-08-17T18:51:03.212Z,1.00
2022-08-17T18:53:39.204Z,1.00
2022-08-17T18:56:27.111Z,1.00
2022-08-17T18:59:14.885Z,1.00
2022-08-17T19:02:15.326Z,1.00
2022-08-17T19:05:00.630Z,1.00
2022-08-17T19:07:32.529Z,1.00
2022-08-17T19:10:10.196Z,1.00
2022-08-17T19:12:43.181Z,1.00
2022-08-17T19:15:14.479Z,1.00
2022-08-17T19:17:49.243Z,1.00
2022-08-17T19:20:20.576Z,1.00
2022-08-17T19:23:16.578Z,1.00
2022-08-17T19:25:49.531Z,1.00
2022-08-17T19:28:24.585Z,1.00
2022-08-17T19:30:57.638Z,1.00
2022-08-17T19:33:27.961Z,1.00
2022-08-17T19:36:03.941Z,1.00
2022-08-17T19:38:45.597Z,1.00
2022-08-17T19:41:22.811Z,1.00
2022-08-17T19:44:19.451Z,1.00
2022-08-17T19:46:56.344Z,1.00
2022-08-17T19:49:53.344Z,1.00
2022-08-17T19:52:44.082Z,1.00
2022-08-17T19:55:20.868Z,1.00
2022-08-17T19:58:02.180Z,1.00
2022-08-17T20:00:31.514Z,1.00
2022-08-17T20:03:06.332Z,1.00
2022-08-17T20:06:01.414Z,2.40
2022-08-17T20:08:30.070Z,7.50
2022-08-17T20:11:02.939Z,11.30
2022-08-17T20:13:34.305Z,14.90
2022-08-17T20:16:02.892Z,17.90
2022-08-17T20:18:38.005Z,21.80
2022-08-17T20:21:20.084Z,24.20
2022-08-17T20:23:54.287Z,26.10
2022-08-17T20:26:27.259Z,28.80
2022-08-17T20:29:37.333Z,31.70
2022-08-17T20:32:18.764Z,36.10
2022-08-17T20:34:48.302Z,45.30
2022-08-17T20:37:33.601Z,45.80
2022-08-17T20:40:25.849Z,44.30
2022-08-17T20:42:53.874Z,47.60
2022-08-17T20:45:59.334Z,55.60
2022-08-17T20:48:39.136Z,62.20
2022-08-17T20:51:27.084Z,68.90
2022-08-17T20:54:07.492Z,73.40
2022-08-17T20:56:50.516Z,75.90
2022-08-17T20:59:56.808Z,82.70
2022-08-17T21:02:29.928Z,86.20
2022-08-17T21:05:30.220Z,86.10
2022-08-17T21:08:02.097Z,1.00
2022-08-17T21:10:36.993Z,1.00
2022-08-17T21:13:32.863Z,1.00
2022-08-17T21:16:08.732Z,1.00
2022-08-17T21:18:43.357Z,99.90
2022-08-17T21:21:22.059Z,1.00
2022-08-17T21:24:03.748Z,1.00
2022-08-17T21:26:50.814Z,99.90
2022-08-17T21:29:31.046Z,41.30
2022-08-17T21:32:24.288Z,1.00
2022-08-17T21:35:30.006Z,1.00
2022-08-17T21:38:03.886Z,99.90
2022-08-17T21:40:33.687Z,91.50
2022-08-17T21:43:17.810Z,99.90
2022-08-17T21:46:03.135Z,1.00
2022-08-17T21:48:33.300Z,1.00
2022-08-17T21:51:10.347Z,1.00
2022-08-17T21:53:48.883Z,1.00
2022-08-17T21:56:24.390Z,99.90
2022-08-17T21:59:00.121Z,1.00
2022-08-17T22:01:31.215Z,99.90
2022-08-17T22:04:03.315Z,99.90
2022-08-17T22:06:36.676Z,99.90
2022-08-17T22:09:13.631Z,99.90
2022-08-17T22:12:02.508Z,99.90
2022-08-17T22:14:52.247Z,99.90
2022-08-17T22:17:24.038Z,95.40
2022-08-17T22:19:56.263Z,1.00
2022-08-17T22:22:28.370Z,99.90
2022-08-17T22:24:58.077Z,1.00
2022-08-17T22:27:49.664Z,99.90
2022-08-17T22:30:30.026Z,27.80
2022-08-17T22:32:58.684Z,99.90
2022-08-17T22:35:33.768Z,1.00
2022-08-17T22:38:33.135Z,22.50
2022-08-17T22:41:31.673Z,99.90
2022-08-17T22:44:07.333Z,7.80
2022-08-17T22:46:41.492Z,99.90
2022-08-17T22:49:09.488Z,1.00
2022-08-17T22:51:37.590Z,99.90
2022-08-17T22:54:35.423Z,99.90
2022-08-17T22:57:23.689Z,99.90
2022-08-17T22:59:54.397Z,1.00
2022-08-17T23:02:27.019Z,1.00
2022-08-17T23:05:16.833Z,1.00
2022-08-17T23:07:47.179Z,99.90
2022-08-17T23:10:15.991Z,99.90
2022-08-17T23:12:43.933Z,1.00
2022-08-17T23:15:15.412Z,1.00
2022-08-17T23:17:45.277Z,1.00
2022-08-17T23:20:15.809Z,1.00
2022-08-17T23:22:52.561Z,99.90
2022-08-17T23:25:27.956Z,99.90
2022-08-17T23:27:57.265Z,99.90
2022-08-17T23:30:28.531Z,1.00
2022-08-17T23:33:01.106Z,99.50
2022-08-17T23:35:39.587Z,99.90
2022-08-17T23:38:09.195Z,1.00
2022-08-17T23:40:37.654Z,1.00
2022-08-17T23:43:23.457Z,1.00
2022-08-17T23:45:54.443Z,1.00
2022-08-17T23:48:35.073Z,99.90
2022-08-17T23:51:09.031Z,38.80
2022-08-17T23:53:38.480Z,99.90
2022-08-17T23:56:10.433Z,99.90
2022-08-17T23:58:39.381Z,99.90
